createdAt,value
2023-05-17T05:02:54.279Z,78.60
2023-05-17T05:07:58.847Z,79.00
2023-05-17T05:13:03.546Z,79.50
2023-05-17T05:18:08.882Z,79.40
2023-05-17T05:23:13.107Z,79.60
2023-05-17T05:28:18.350Z,79.70
2023-05-17T05:33:23.505Z,79.60
2023-05-17T05:38:27.288Z,79.70
2023-05-17T05:43:31.493Z,79.80
2023-05-17T05:48:39.533Z,79.80
2023-05-17T05:53:43.493Z,80.00
2023-05-17T05:58:47.122Z,79.80
2023-05-17T06:03:52.484Z,80.00
2023-05-17T06:08:58.155Z,80.20
2023-05-17T06:14:03.099Z,80.20
2023-05-17T06:19:08.180Z,80.50
2023-05-17T06:24:11.835Z,80.30
2023-05-17T06:29:15.428Z,80.40
2023-05-17T06:34:20.364Z,80.60
2023-05-17T06:39:23.976Z,80.80
2023-05-17T06:44:27.586Z,80.80
2023-05-17T06:49:32.588Z,81.00
2023-05-17T06:54:36.293Z,81.20
2023-05-17T06:59:39.977Z,81.20
2023-05-17T07:04:45.029Z,81.00
2023-05-17T07:09:48.842Z,81.30
2023-05-17T07:14:52.435Z,81.70
2023-05-17T07:20:00.265Z,81.50
2023-05-17T07:25:05.269Z,81.30
2023-05-17T07:30:09.901Z,81.30
2023-05-17T07:35:14.687Z,81.60
2023-05-17T07:40:18.548Z,81.20
2023-05-17T07:45:22.374Z,80.50
2023-05-17T07:50:27.902Z,79.90
2023-05-17T07:55:31.582Z,80.30
2023-05-17T08:00:35.254Z,80.40
2023-05-17T08:05:40.286Z,80.30
2023-05-17T08:10:44.019Z,80.00
2023-05-17T08:15:48.842Z,79.60
2023-05-17T08:20:55.031Z,79.20
2023-05-17T08:25:58.687Z,78.40
2023-05-17T08:31:02.337Z,77.30
2023-05-17T08:36:08.790Z,76.10
2023-05-17T08:41:12.449Z,74.80
2023-05-17T08:46:16.945Z,73.40
2023-05-17T08:51:21.895Z,71.50
2023-05-17T08:56:28.513Z,69.20
2023-05-17T09:01:33.356Z,67.50
2023-05-17T09:06:38.659Z,66.00
2023-05-17T09:11:42.308Z,64.10
2023-05-17T09:16:45.994Z,62.80
2023-05-17T09:21:51.244Z,61.80
2023-05-17T09:26:54.846Z,60.50
2023-05-17T09:31:58.564Z,59.20
2023-05-17T09:37:04.338Z,58.40
2023-05-17T09:42:08.820Z,58.10
2023-05-17T09:47:12.425Z,57.90
2023-05-17T09:52:21.189Z,57.30
2023-05-17T09:57:26.302Z,56.30
2023-05-17T10:02:33.777Z,55.60
2023-05-17T10:07:39.551Z,55.20
2023-05-17T10:12:44.307Z,55.10
2023-05-17T10:17:48.337Z,55.40
2023-05-17T10:22:53.899Z,55.50
2023-05-17T10:27:58.360Z,55.40
2023-05-17T10:33:02.502Z,55.30
2023-05-17T10:38:07.520Z,54.80
2023-05-17T10:43:11.528Z,54.50
2023-05-17T10:48:17.454Z,54.10
2023-05-17T10:53:22.799Z,53.80
2023-05-17T10:58:29.756Z,53.00
2023-05-17T11:03:34.615Z,53.00
2023-05-17T11:08:47.459Z,52.30
2023-05-17T11:13:55.894Z,51.00
2023-05-17T11:19:08.600Z,50.20
2023-05-17T11:24:22.323Z,49.00
2023-05-17T11:29:30.597Z,47.90
2023-05-17T11:34:35.410Z,47.50
2023-05-17T11:40:05.153Z,47.00
2023-05-17T11:45:09.773Z,45.90
2023-05-17T11:50:14.717Z,46.30
2023-05-17T11:55:20.006Z,46.20
2023-05-17T12:00:28.491Z,45.40
2023-05-17T12:05:32.393Z,44.80
2023-05-17T12:10:37.400Z,44.40
2023-05-17T12:15:42.484Z,43.80
2023-05-17T12:20:59.447Z,43.40
2023-05-17T12:26:09.396Z,42.90
2023-05-17T12:31:15.886Z,43.10
2023-05-17T12:36:19.988Z,43.10
2023-05-17T12:41:26.499Z,42.80
2023-05-17T12:46:30.563Z,42.50
2023-05-17T12:51:41.319Z,42.40
2023-05-17T12:56:46.569Z,42.10
2023-05-17T13:01:51.594Z,42.50
2023-05-17T13:06:59.364Z,41.80
2023-05-17T13:12:07.902Z,41.70
2023-05-17T13:17:12.915Z,41.80
2023-05-17T13:22:16.718Z,42.20
2023-05-17T13:27:21.720Z,41.90
2023-05-17T13:32:26.142Z,41.40
2023-05-17T13:37:29.870Z,41.20
2023-05-17T13:42:34.821Z,41.20
2023-05-17T13:47:38.681Z,41.10
2023-05-17T13:52:42.455Z,41.00
2023-05-17T13:57:47.495Z,40.70
2023-05-17T14:02:51.257Z,40.40
2023-05-17T14:07:54.923Z,40.60
2023-05-17T14:12:59.856Z,40.50
2023-05-17T14:18:03.560Z,40.40
2023-05-17T14:23:07.221Z,41.20
2023-05-17T14:28:13.665Z,41.20
2023-05-17T14:33:18.294Z,41.80
2023-05-17T14:38:23.186Z,41.60
2023-05-17T14:43:28.414Z,41.40
2023-05-17T14:48:33.029Z,41.50
2023-05-17T14:53:36.677Z,42.10
2023-05-17T14:58:42.127Z,42.40
2023-05-17T15:03:46.253Z,42.70
2023-05-17T15:08:49.848Z,42.60
2023-05-17T15:13:54.953Z,42.60
2023-05-17T15:18:59.267Z,42.80
2023-05-17T15:24:02.776Z,42.90
2023-05-17T15:29:07.795Z,43.20
2023-05-17T15:34:11.486Z,43.40
2023-05-17T15:39:15.244Z,43.60
2023-05-17T15:44:20.338Z,43.60
2023-05-17T15:49:23.973Z,43.90
2023-05-17T15:54:27.627Z,44.00
2023-05-17T15:59:32.800Z,44.30
2023-05-17T16:04:36.641Z,44.20
2023-05-17T16:09:40.536Z,44.20
2023-05-17T16:14:45.996Z,44.30
2023-05-17T16:19:49.679Z,44.60
2023-05-17T16:24:54.212Z,45.10
2023-05-17T16:29:58.987Z,45.60
2023-05-17T16:35:03.261Z,45.90
2023-05-17T16:40:08.114Z,46.00
2023-05-17T16:45:13.415Z,46.30
2023-05-17T16:50:17.209Z,46.70
2023-05-17T16:55:20.834Z,47.40
2023-05-17T17:00:26.055Z,47.70
2023-05-17T17:05:29.821Z,48.30
2023-05-17T17:10:39.166Z,48.70
2023-05-17T17:15:44.366Z,49.20
2023-05-17T17:20:48.132Z,49.40
2023-05-17T17:25:51.837Z,49.80
2023-05-17T17:30:56.879Z,50.10
2023-05-17T17:36:00.495Z,50.40
2023-05-17T17:41:04.141Z,50.70
2023-05-17T17:46:09.161Z,51.00
2023-05-17T17:51:12.836Z,51.10
2023-05-17T17:56:16.687Z,51.50
2023-05-17T18:01:21.778Z,52.00
2023-05-17T18:06:25.574Z,52.80
2023-05-17T18:11:29.174Z,52.70
2023-05-17T18:16:34.179Z,53.40
2023-05-17T18:21:37.913Z,53.10
2023-05-17T18:26:41.567Z,53.10
2023-05-17T18:31:47.532Z,53.80
2023-05-17T18:36:51.303Z,53.40
2023-05-17T18:41:55.260Z,53.40
2023-05-17T18:47:00.270Z,53.60
2023-05-17T18:52:03.951Z,54.00
2023-05-17T18:57:11.361Z,54.00
2023-05-17T19:02:16.362Z,54.30
2023-05-17T19:07:20.035Z,54.50
2023-05-17T19:12:23.683Z,54.70
2023-05-17T19:17:28.813Z,54.90
2023-05-17T19:22:32.534Z,55.30
2023-05-17T19:27:36.159Z,55.60
2023-05-17T19:32:41.095Z,55.70
2023-05-17T19:37:44.892Z,56.00
2023-05-17T19:42:48.561Z,56.40
2023-05-17T19:47:54.133Z,56.70
2023-05-17T19:52:57.966Z,57.20
2023-05-17T19:58:02.981Z,57.40
2023-05-17T20:03:08.174Z,57.50
2023-05-17T20:08:11.941Z,58.00
2023-05-17T20:13:15.673Z,58.30
2023-05-17T20:18:20.985Z,58.60
2023-05-17T20:23:24.690Z,58.90
2023-05-17T20:28:28.489Z,59.20
2023-05-17T20:33:33.540Z,59.50
2023-05-17T20:38:37.186Z,59.70
2023-05-17T20:43:40.737Z,60.00
2023-05-17T20:48:47.890Z,60.30
2023-05-17T20:53:51.586Z,60.60
2023-05-17T20:58:55.312Z,61.00
2023-05-17T21:04:00.833Z,61.30
2023-05-17T21:09:04.685Z,61.60
2023-05-17T21:14:08.327Z,61.80
2023-05-17T21:19:14.503Z,62.10
2023-05-17T21:24:18.191Z,62.40
2023-05-17T21:29:21.995Z,62.60
2023-05-17T21:34:26.994Z,63.00
2023-05-17T21:39:30.687Z,63.30
2023-05-17T21:44:34.456Z,63.60
2023-05-17T21:49:39.504Z,64.10
2023-05-17T21:54:43.151Z,64.30
2023-05-17T21:59:46.923Z,64.80
2023-05-17T22:04:52.026Z,65.20
2023-05-17T22:09:55.799Z,65.40
2023-05-17T22:14:59.623Z,65.80
2023-05-17T22:20:05.455Z,66.60
2023-05-17T22:25:10.262Z,66.60
